Other Surface Observations
Issued by NWS Great Falls, MT

Home | Current Version | Previous Version | Text Only | Print | Product List | Glossary On
Versions: 1 2 3 4 5 6 7 8 9 10 11 12 13 14 15 16 17 18 19 20 21 22 23 24 25 26 27 28 29 30 31 32 33 34 35 36 37 38 39 40 41 42 43 44 45 46 47 48 49 50
000
SXUS55 KTFX 271010
OSOTFX

AREA AWOS OBSERVATIONS
NATIONAL WEATHER SERVICE GREAT FALLS MT
0410 AM MDT Sat Aug 27 2016

METAR K6S8 270955Z AUTO 28000KT 40SM 08/02 A2994 RMK A01 T00830022
METAR K6S8 270855Z AUTO 30000KT 40SM 10/02 A2995 RMK A01 T01000022
METAR K7S0 270955Z AUTO 05000KT 25SM 13/08 A2991 RMK A01 T01270077
METAR K7S1 270955Z AUTO 13003KT 40SM 07/M01 A3000 RMK A01 T00661005
METAR K97M 270955Z AUTO 14000KT 40SM 14/07 A2995 RMK A01 T01380066
METAR K97M 270855Z AUTO 17001KT 40SM 14/07 A2995 RMK A01 T01440072
METAR K9S2 270955Z AUTO 30000KT 25SM 05/02 A2990 RMK A01 T00500022
METAR K9S2 270855Z AUTO 30000KT 25SM 05/02 A2990 RMK A01 T00500022
METAR K9S5 270955Z AUTO 28000KT 25SM 06/06 A2997 RMK A01 T00550055
METAR KRPX 270955Z AUTO 21005KT 40SM 08/04 A2986 RMK A01 T00830044
METAR KS01 270955Z AUTO 17004KT 25SM 12/08 A2987 RMK A01 T01220083
METAR KS01 270855Z AUTO 17003KT 25SM 14/08 A2988 RMK A01 T01380083
METAR KS34 270955Z AUTO  15SM 12/05 A2986 RMK A01 T01220050
METAR KS34 270855Z AUTO  15SM 13/06 A2987 RMK A01 T01330061
METAR KTHM 270855Z AUTO 15000KT 40SM 14/06 A2990 RMK A01 T01380055



USA.gov is the U.S. government's official web portal to all federal, state and local government web resources and services.